テルアビブ / ベン・グリオン の空港の天気 - METARとTAF

ベン・グリオン国際空港(テルアビブ) ( LLBG / TLV ) - イスラエル ロード / テルアビブ
飛行場実況気象(Metar)
観測時間05/28 12:20 IDT (05/28 09:20 UTC)
風向・風速西 4m/s
視程10km以上
天気現象
なし
気温30℃
湿度49%
気圧1009hPa
METARLLBG 280920Z 27007KT 230V310 CAVOK 30/18 Q1009 NOSIG
過去の天気等 Google飛行場航空写真 Wunderground天気予報

過去48時間のMETAR

飛行場予報(TAF)
発表時間: 5/28 08:01 IDT (5/28 05:01 UTC)
予報対象時間: 28日9時 IDT ~ 29日9時 IDT
風向・風速南南東 2m/s
視程10km以上
なし
28日10時 IDT ~ 28日12時 IDT に徐々に
風向・風速西北西 5m/s
28日18時 IDT ~ 28日20時 IDT に徐々に
風向・風速不定 2m/s
29日5時 IDT から 確率 30% で
視程7000m
全天の4割程度の雲 雲底高度 240m
TAF LLBG 280501Z 2806/2906 16004KT CAVOK
BECMG 2807/2809 30010KT
BECMG 2815/2817 VRB03KT
PROB30 2902/2905 7000 SCT008 TX31/2810Z TN19/2904Z